sensor_id;sensor_type;location;lat;lon;timestamp;temperature;humidity
49765;DHT22;35657;51.204;-4.130;2023-02-17T00:01:26;10.60;99.90
49765;DHT22;35657;51.204;-4.130;2023-02-17T00:03:52;10.50;99.90
49765;DHT22;35657;51.204;-4.130;2023-02-17T00:06:20;10.50;99.90
49765;DHT22;35657;51.204;-4.130;2023-02-17T00:08:46;10.50;99.90
49765;DHT22;35657;51.204;-4.130;2023-02-17T00:11:13;10.50;99.90
49765;DHT22;35657;51.204;-4.130;2023-02-17T00:13:39;10.40;99.90
49765;DHT22;35657;51.204;-4.130;2023-02-17T00:16:06;10.40;99.90
49765;DHT22;35657;51.204;-4.130;2023-02-17T00:18:32;10.40;99.90
49765;DHT22;35657;51.204;-4.130;2023-02-17T00:20:58;10.40;99.90
49765;DHT22;35657;51.204;-4.130;2023-02-17T00:23:23;10.40;99.90
49765;DHT22;35657;51.204;-4.130;2023-02-17T00:25:49;10.40;99.90
49765;DHT22;35657;51.204;-4.130;2023-02-17T00:28:14;10.40;99.90
49765;DHT22;35657;51.204;-4.130;2023-02-17T00:30:40;10.40;99.90
49765;DHT22;35657;51.204;-4.130;2023-02-17T00:33:06;10.40;99.90
49765;DHT22;35657;51.204;-4.130;2023-02-17T00:35:32;10.40;99.90
49765;DHT22;35657;51.204;-4.130;2023-02-17T00:37:57;10.40;99.90
49765;DHT22;35657;51.204;-4.130;2023-02-17T00:40:23;10.30;99.90
49765;DHT22;35657;51.204;-4.130;2023-02-17T00:42:49;10.30;99.90
49765;DHT22;35657;51.204;-4.130;2023-02-17T00:45:15;10.30;99.90
49765;DHT22;35657;51.204;-4.130;2023-02-17T00:47:40;10.30;99.90
49765;DHT22;35657;51.204;-4.130;2023-02-17T00:50:06;10.30;99.90
49765;DHT22;35657;51.204;-4.130;2023-02-17T00:52:32;10.30;99.90
49765;DHT22;35657;51.204;-4.130;2023-02-17T00:54:58;10.40;99.90
49765;DHT22;35657;51.204;-4.130;2023-02-17T00:57:23;10.40;99.90
49765;DHT22;35657;51.204;-4.130;2023-02-17T00:59:50;10.50;99.90
49765;DHT22;35657;51.204;-4.130;2023-02-17T01:02:16;10.50;99.90
49765;DHT22;35657;51.204;-4.130;2023-02-17T01:04:41;10.50;99.90
49765;DHT22;35657;51.204;-4.130;2023-02-17T01:07:07;10.50;99.90
49765;DHT22;35657;51.204;-4.130;2023-02-17T01:09:33;10.60;99.90
49765;DHT22;35657;51.204;-4.130;2023-02-17T01:11:59;10.50;99.90
49765;DHT22;35657;51.204;-4.130;2023-02-17T01:14:24;10.50;99.90
49765;DHT22;35657;51.204;-4.130;2023-02-17T01:16:50;10.40;99.90
49765;DHT22;35657;51.204;-4.130;2023-02-17T01:19:18;10.40;99.90
49765;DHT22;35657;51.204;-4.130;2023-02-17T01:21:44;10.30;99.90
49765;DHT22;35657;51.204;-4.130;2023-02-17T01:24:11;10.30;99.90
49765;DHT22;35657;51.204;-4.130;2023-02-17T01:26:38;10.30;99.90
49765;DHT22;35657;51.204;-4.130;2023-02-17T01:29:05;10.30;99.90
49765;DHT22;35657;51.204;-4.130;2023-02-17T01:31:31;10.30;99.90
49765;DHT22;35657;51.204;-4.130;2023-02-17T01:33:59;10.30;99.90
49765;DHT22;35657;51.204;-4.130;2023-02-17T01:36:26;10.20;99.90
49765;DHT22;35657;51.204;-4.130;2023-02-17T01:38:52;10.20;99.90
49765;DHT22;35657;51.204;-4.130;2023-02-17T01:41:20;10.30;99.90
49765;DHT22;35657;51.204;-4.130;2023-02-17T01:44:19;10.20;99.90
49765;DHT22;35657;51.204;-4.130;2023-02-17T01:46:48;10.20;99.90
49765;DHT22;35657;51.204;-4.130;2023-02-17T01:49:39;10.20;99.90
49765;DHT22;35657;51.204;-4.130;2023-02-17T01:54:42;10.20;99.90
49765;DHT22;35657;51.204;-4.130;2023-02-17T01:57:11;10.20;99.90
49765;DHT22;35657;51.204;-4.130;2023-02-17T01:59:38;10.20;99.90
49765;DHT22;35657;51.204;-4.130;2023-02-17T02:02:05;10.20;99.90
49765;DHT22;35657;51.204;-4.130;2023-02-17T02:04:34;10.20;99.90
49765;DHT22;35657;51.204;-4.130;2023-02-17T02:07:01;10.20;99.90
49765;DHT22;35657;51.204;-4.130;2023-02-17T02:09:48;10.20;99.90
49765;DHT22;35657;51.204;-4.130;2023-02-17T02:14:47;10.40;99.90
49765;DHT22;35657;51.204;-4.130;2023-02-17T02:36:19;10.30;99.90
49765;DHT22;35657;51.204;-4.130;2023-02-17T02:39:12;10.30;99.90
49765;DHT22;35657;51.204;-4.130;2023-02-17T02:41:51;10.30;99.90
49765;DHT22;35657;51.204;-4.130;2023-02-17T02:44:19;10.30;99.90
49765;DHT22;35657;51.204;-4.130;2023-02-17T02:47:04;10.30;99.90
49765;DHT22;35657;51.204;-4.130;2023-02-17T02:49:33;10.30;99.90
49765;DHT22;35657;51.204;-4.130;2023-02-17T02:52:14;10.20;99.90
49765;DHT22;35657;51.204;-4.130;2023-02-17T03:00:20;10.20;99.90
49765;DHT22;35657;51.204;-4.130;2023-02-17T03:02:53;10.20;99.90
49765;DHT22;35657;51.204;-4.130;2023-02-17T03:05:29;10.20;99.90
49765;DHT22;35657;51.204;-4.130;2023-02-17T03:08:42;10.20;99.90
49765;DHT22;35657;51.204;-4.130;2023-02-17T03:10:51;10.20;99.90
49765;DHT22;35657;51.204;-4.130;2023-02-17T03:13:18;10.20;99.90
49765;DHT22;35657;51.204;-4.130;2023-02-17T03:15:46;10.20;99.90
49765;DHT22;35657;51.204;-4.130;2023-02-17T03:18:12;10.20;99.90
49765;DHT22;35657;51.204;-4.130;2023-02-17T03:20:52;10.20;99.90
49765;DHT22;35657;51.204;-4.130;2023-02-17T03:23:18;10.20;99.90
49765;DHT22;35657;51.204;-4.130;2023-02-17T03:25:43;10.30;99.90
49765;DHT22;35657;51.204;-4.130;2023-02-17T03:28:09;10.30;99.90
49765;DHT22;35657;51.204;-4.130;2023-02-17T03:30:35;10.40;99.90
49765;DHT22;35657;51.204;-4.130;2023-02-17T03:33:02;10.40;99.90
49765;DHT22;35657;51.204;-4.130;2023-02-17T03:35:28;10.40;99.90
49765;DHT22;35657;51.204;-4.130;2023-02-17T03:37:53;10.50;99.90
49765;DHT22;35657;51.204;-4.130;2023-02-17T03:40:19;10.50;99.90
49765;DHT22;35657;51.204;-4.130;2023-02-17T03:42:45;10.50;99.90
49765;DHT22;35657;51.204;-4.130;2023-02-17T03:45:10;10.40;99.90
49765;DHT22;35657;51.204;-4.130;2023-02-17T03:47:36;10.40;99.90
49765;DHT22;35657;51.204;-4.130;2023-02-17T03:50:02;10.40;99.90
49765;DHT22;35657;51.204;-4.130;2023-02-17T03:52:28;10.30;99.90
49765;DHT22;35657;51.204;-4.130;2023-02-17T03:54:53;10.30;99.90
49765;DHT22;35657;51.204;-4.130;2023-02-17T03:57:19;10.30;99.90
49765;DHT22;35657;51.204;-4.130;2023-02-17T03:59:45;10.30;99.90
49765;DHT22;35657;51.204;-4.130;2023-02-17T04:02:10;10.30;99.90
49765;DHT22;35657;51.204;-4.130;2023-02-17T04:04:36;10.30;99.90
49765;DHT22;35657;51.204;-4.130;2023-02-17T04:07:03;10.30;99.90
49765;DHT22;35657;51.204;-4.130;2023-02-17T04:09:29;10.30;99.90
49765;DHT22;35657;51.204;-4.130;2023-02-17T04:11:54;10.30;99.90
49765;DHT22;35657;51.204;-4.130;2023-02-17T04:14:20;10.30;99.90
49765;DHT22;35657;51.204;-4.130;2023-02-17T04:16:46;10.20;99.90
49765;DHT22;35657;51.204;-4.130;2023-02-17T04:19:11;10.20;99.90
49765;DHT22;35657;51.204;-4.130;2023-02-17T04:21:37;10.30;99.90
49765;DHT22;35657;51.204;-4.130;2023-02-17T04:24:03;10.30;99.90
49765;DHT22;35657;51.204;-4.130;2023-02-17T04:26:29;10.30;99.90
49765;DHT22;35657;51.204;-4.130;2023-02-17T04:28:55;10.30;99.90
49765;DHT22;35657;51.204;-4.130;2023-02-17T04:31:21;10.30;99.90
49765;DHT22;35657;51.204;-4.130;2023-02-17T04:33:47;10.30;99.90
49765;DHT22;35657;51.204;-4.130;2023-02-17T04:36:13;10.30;99.90
49765;DHT22;35657;51.204;-4.130;2023-02-17T04:38:39;10.30;99.90
49765;DHT22;35657;51.204;-4.130;2023-02-17T04:41:05;10.30;99.90
49765;DHT22;35657;51.204;-4.130;2023-02-17T04:43:32;10.40;99.90
49765;DHT22;35657;51.204;-4.130;2023-02-17T04:45:57;10.50;99.90
49765;DHT22;35657;51.204;-4.130;2023-02-17T04:48:24;10.50;99.90
49765;DHT22;35657;51.204;-4.130;2023-02-17T04:50:50;10.50;99.90
49765;DHT22;35657;51.204;-4.130;2023-02-17T04:53:17;10.50;99.90
49765;DHT22;35657;51.204;-4.130;2023-02-17T04:55:43;10.60;99.90
49765;DHT22;35657;51.204;-4.130;2023-02-17T04:58:12;10.50;99.90
49765;DHT22;35657;51.204;-4.130;2023-02-17T05:00:37;10.60;99.90
49765;DHT22;35657;51.204;-4.130;2023-02-17T05:03:03;10.50;99.90
49765;DHT22;35657;51.204;-4.130;2023-02-17T05:05:29;10.50;99.90
49765;DHT22;35657;51.204;-4.130;2023-02-17T05:07:55;10.40;99.90
49765;DHT22;35657;51.204;-4.130;2023-02-17T05:10:21;10.40;99.90
49765;DHT22;35657;51.204;-4.130;2023-02-17T05:12:46;10.40;99.90
49765;DHT22;35657;51.204;-4.130;2023-02-17T05:15:12;10.40;99.90
49765;DHT22;35657;51.204;-4.130;2023-02-17T05:17:38;10.40;99.90
49765;DHT22;35657;51.204;-4.130;2023-02-17T05:20:06;10.40;99.90
49765;DHT22;35657;51.204;-4.130;2023-02-17T05:22:32;10.40;99.90
49765;DHT22;35657;51.204;-4.130;2023-02-17T05:24:57;10.40;99.90
49765;DHT22;35657;51.204;-4.130;2023-02-17T05:27:23;10.40;99.90
49765;DHT22;35657;51.204;-4.130;2023-02-17T05:29:49;10.40;99.90
49765;DHT22;35657;51.204;-4.130;2023-02-17T05:32:16;10.40;99.90
49765;DHT22;35657;51.204;-4.130;2023-02-17T05:34:42;10.50;99.90
49765;DHT22;35657;51.204;-4.130;2023-02-17T05:37:08;10.40;99.90
49765;DHT22;35657;51.204;-4.130;2023-02-17T05:39:34;10.50;99.90
49765;DHT22;35657;51.204;-4.130;2023-02-17T05:42:00;10.40;99.90
49765;DHT22;35657;51.204;-4.130;2023-02-17T05:44:25;10.50;99.90
49765;DHT22;35657;51.204;-4.130;2023-02-17T05:46:51;10.40;99.90
49765;DHT22;35657;51.204;-4.130;2023-02-17T05:49:17;10.40;99.90
49765;DHT22;35657;51.204;-4.130;2023-02-17T05:51:42;10.40;99.90
49765;DHT22;35657;51.204;-4.130;2023-02-17T05:54:08;10.40;99.90
49765;DHT22;35657;51.204;-4.130;2023-02-17T05:56:34;10.40;99.90
49765;DHT22;35657;51.204;-4.130;2023-02-17T05:58:59;10.50;99.90
49765;DHT22;35657;51.204;-4.130;2023-02-17T06:01:26;10.50;99.90
49765;DHT22;35657;51.204;-4.130;2023-02-17T06:03:51;10.60;99.90
49765;DHT22;35657;51.204;-4.130;2023-02-17T06:06:17;10.60;99.90
49765;DHT22;35657;51.204;-4.130;2023-02-17T06:08:43;10.60;99.90
49765;DHT22;35657;51.204;-4.130;2023-02-17T06:11:08;10.60;99.90
49765;DHT22;35657;51.204;-4.130;2023-02-17T06:13:34;10.60;99.90
49765;DHT22;35657;51.204;-4.130;2023-02-17T06:16:00;10.60;99.90
49765;DHT22;35657;51.204;-4.130;2023-02-17T06:18:27;10.60;99.90
49765;DHT22;35657;51.204;-4.130;2023-02-17T06:20:57;10.50;99.90
49765;DHT22;35657;51.204;-4.130;2023-02-17T06:23:24;10.50;99.90
49765;DHT22;35657;51.204;-4.130;2023-02-17T06:25:49;10.50;99.90
49765;DHT22;35657;51.204;-4.130;2023-02-17T06:28:15;10.40;99.90
49765;DHT22;35657;51.204;-4.130;2023-02-17T06:30:41;10.40;99.90
49765;DHT22;35657;51.204;-4.130;2023-02-17T06:33:07;10.40;99.90
49765;DHT22;35657;51.204;-4.130;2023-02-17T06:35:33;10.40;99.90
49765;DHT22;35657;51.204;-4.130;2023-02-17T06:37:59;10.40;99.90
49765;DHT22;35657;51.204;-4.130;2023-02-17T06:40:25;10.40;99.90
49765;DHT22;35657;51.204;-4.130;2023-02-17T06:42:50;10.40;99.90
49765;DHT22;35657;51.204;-4.130;2023-02-17T06:45:16;10.40;99.90
49765;DHT22;35657;51.204;-4.130;2023-02-17T06:47:42;10.40;99.90
49765;DHT22;35657;51.204;-4.130;2023-02-17T06:50:08;10.40;99.90
49765;DHT22;35657;51.204;-4.130;2023-02-17T06:52:34;10.40;99.90
49765;DHT22;35657;51.204;-4.130;2023-02-17T06:55:00;10.40;99.90
49765;DHT22;35657;51.204;-4.130;2023-02-17T06:57:26;10.40;99.90
49765;DHT22;35657;51.204;-4.130;2023-02-17T06:59:51;10.40;99.90
49765;DHT22;35657;51.204;-4.130;2023-02-17T07:02:17;10.40;99.90
49765;DHT22;35657;51.204;-4.130;2023-02-17T07:04:43;10.40;99.90
49765;DHT22;35657;51.204;-4.130;2023-02-17T07:07:09;10.40;99.90
49765;DHT22;35657;51.204;-4.130;2023-02-17T07:09:35;10.40;99.90
49765;DHT22;35657;51.204;-4.130;2023-02-17T07:12:01;10.40;99.90
49765;DHT22;35657;51.204;-4.130;2023-02-17T07:14:27;10.40;99.90
49765;DHT22;35657;51.204;-4.130;2023-02-17T07:16:53;10.40;99.90
49765;DHT22;35657;51.204;-4.130;2023-02-17T07:19:20;10.50;99.90
49765;DHT22;35657;51.204;-4.130;2023-02-17T07:21:46;10.50;99.90
49765;DHT22;35657;51.204;-4.130;2023-02-17T07:24:11;10.60;99.90
49765;DHT22;35657;51.204;-4.130;2023-02-17T07:26:38;10.60;99.90
49765;DHT22;35657;51.204;-4.130;2023-02-17T07:29:05;10.60;99.90
49765;DHT22;35657;51.204;-4.130;2023-02-17T07:31:32;10.60;99.90
49765;DHT22;35657;51.204;-4.130;2023-02-17T07:34:00;10.50;99.90
49765;DHT22;35657;51.204;-4.130;2023-02-17T07:36:26;10.50;99.90
49765;DHT22;35657;51.204;-4.130;2023-02-17T07:38:52;10.40;99.90
49765;DHT22;35657;51.204;-4.130;2023-02-17T07:41:21;10.40;99.90
49765;DHT22;35657;51.204;-4.130;2023-02-17T07:43:47;10.40;99.90
49765;DHT22;35657;51.204;-4.130;2023-02-17T07:46:14;10.40;99.90
49765;DHT22;35657;51.204;-4.130;2023-02-17T07:48:40;10.40;99.90
49765;DHT22;35657;51.204;-4.130;2023-02-17T07:51:08;10.40;99.90
49765;DHT22;35657;51.204;-4.130;2023-02-17T07:53:35;10.40;99.90
49765;DHT22;35657;51.204;-4.130;2023-02-17T07:56:02;10.40;99.90
49765;DHT22;35657;51.204;-4.130;2023-02-17T07:58:33;10.40;99.90
49765;DHT22;35657;51.204;-4.130;2023-02-17T08:01:07;10.40;99.90
49765;DHT22;35657;51.204;-4.130;2023-02-17T08:03:33;10.40;99.90
49765;DHT22;35657;51.204;-4.130;2023-02-17T08:05:59;10.40;99.90
49765;DHT22;35657;51.204;-4.130;2023-02-17T08:08:25;10.40;99.90
49765;DHT22;35657;51.204;-4.130;2023-02-17T08:11:15;10.40;99.90
49765;DHT22;35657;51.204;-4.130;2023-02-17T08:14:00;10.40;99.90
49765;DHT22;35657;51.204;-4.130;2023-02-17T08:16:26;10.40;99.90
49765;DHT22;35657;51.204;-4.130;2023-02-17T08:18:53;10.40;99.90
49765;DHT22;35657;51.204;-4.130;2023-02-17T08:21:24;10.40;99.90
49765;DHT22;35657;51.204;-4.130;2023-02-17T08:23:50;10.40;99.90
49765;DHT22;35657;51.204;-4.130;2023-02-17T08:26:17;10.40;99.90
49765;DHT22;35657;51.204;-4.130;2023-02-17T08:28:44;10.40;99.90
49765;DHT22;35657;51.204;-4.130;2023-02-17T08:33:45;10.50;99.90
49765;DHT22;35657;51.204;-4.130;2023-02-17T08:36:12;10.60;99.90
49765;DHT22;35657;51.204;-4.130;2023-02-17T08:38:38;10.60;99.90
49765;DHT22;35657;51.204;-4.130;2023-02-17T08:41:16;10.70;99.90
49765;DHT22;35657;51.204;-4.130;2023-02-17T08:43:42;10.70;99.90
49765;DHT22;35657;51.204;-4.130;2023-02-17T08:46:09;10.70;99.90
49765;DHT22;35657;51.204;-4.130;2023-02-17T08:48:36;10.80;99.90
49765;DHT22;35657;51.204;-4.130;2023-02-17T08:51:03;10.70;99.90
49765;DHT22;35657;51.204;-4.130;2023-02-17T08:53:29;10.70;99.90
49765;DHT22;35657;51.204;-4.130;2023-02-17T08:55:55;10.60;99.90
49765;DHT22;35657;51.204;-4.130;2023-02-17T08:58:21;10.60;99.90
49765;DHT22;35657;51.204;-4.130;2023-02-17T09:00:47;10.70;99.90
49765;DHT22;35657;51.204;-4.130;2023-02-17T09:03:13;10.60;99.90
49765;DHT22;35657;51.204;-4.130;2023-02-17T09:05:39;10.60;99.90
49765;DHT22;35657;51.204;-4.130;2023-02-17T09:08:05;10.60;99.90
49765;DHT22;35657;51.204;-4.130;2023-02-17T09:10:31;10.60;99.90
49765;DHT22;35657;51.204;-4.130;2023-02-17T09:12:56;10.70;99.90
49765;DHT22;35657;51.204;-4.130;2023-02-17T09:15:22;10.70;99.90
49765;DHT22;35657;51.204;-4.130;2023-02-17T09:17:48;10.70;99.90
49765;DHT22;35657;51.204;-4.130;2023-02-17T09:20:14;10.70;99.90
49765;DHT22;35657;51.204;-4.130;2023-02-17T09:22:40;10.70;99.90
49765;DHT22;35657;51.204;-4.130;2023-02-17T09:25:06;10.70;99.90
49765;DHT22;35657;51.204;-4.130;2023-02-17T09:27:32;10.70;99.90
49765;DHT22;35657;51.204;-4.130;2023-02-17T09:29:57;10.70;99.90
49765;DHT22;35657;51.204;-4.130;2023-02-17T09:32:23;10.70;99.90
49765;DHT22;35657;51.204;-4.130;2023-02-17T09:34:49;10.70;99.90
49765;DHT22;35657;51.204;-4.130;2023-02-17T09:37:15;10.70;99.90
49765;DHT22;35657;51.204;-4.130;2023-02-17T09:39:42;10.70;99.90
49765;DHT22;35657;51.204;-4.130;2023-02-17T09:42:22;10.80;99.90
49765;DHT22;35657;51.204;-4.130;2023-02-17T09:44:55;10.70;99.90
49765;DHT22;35657;51.204;-4.130;2023-02-17T09:47:48;10.80;99.90
49765;DHT22;35657;51.204;-4.130;2023-02-17T09:50:23;10.90;99.90
49765;DHT22;35657;51.204;-4.130;2023-02-17T09:55:41;11.00;99.90
49765;DHT22;35657;51.204;-4.130;2023-02-17T09:58:33;11.10;99.90
49765;DHT22;35657;51.204;-4.130;2023-02-17T10:01:05;11.20;99.90
49765;DHT22;35657;51.204;-4.130;2023-02-17T10:04:07;11.20;99.90
49765;DHT22;35657;51.204;-4.130;2023-02-17T10:06:39;11.20;99.90
49765;DHT22;35657;51.204;-4.130;2023-02-17T10:11:47;11.00;99.90
49765;DHT22;35657;51.204;-4.130;2023-02-17T10:14:28;11.00;99.90
49765;DHT22;35657;51.204;-4.130;2023-02-17T10:17:04;11.00;99.90
49765;DHT22;35657;51.204;-4.130;2023-02-17T10:19:35;11.00;99.90
49765;DHT22;35657;51.204;-4.130;2023-02-17T10:22:16;11.00;99.90
49765;DHT22;35657;51.204;-4.130;2023-02-17T10:24:42;11.00;99.90
49765;DHT22;35657;51.204;-4.130;2023-02-17T10:27:57;11.00;99.90
49765;DHT22;35657;51.204;-4.130;2023-02-17T10:33:00;11.00;99.90
49765;DHT22;35657;51.204;-4.130;2023-02-17T10:35:39;11.10;99.90
49765;DHT22;35657;51.204;-4.130;2023-02-17T10:40:58;11.10;99.90
49765;DHT22;35657;51.204;-4.130;2023-02-17T10:43:27;11.10;99.90
49765;DHT22;35657;51.204;-4.130;2023-02-17T10:45:59;11.10;99.90
49765;DHT22;35657;51.204;-4.130;2023-02-17T10:50:58;11.10;99.90
49765;DHT22;35657;51.204;-4.130;2023-02-17T10:53:30;11.10;99.90
49765;DHT22;35657;51.204;-4.130;2023-02-17T10:56:07;11.20;99.90
49765;DHT22;35657;51.204;-4.130;2023-02-17T11:01:11;11.20;99.90
49765;DHT22;35657;51.204;-4.130;2023-02-17T11:03:38;11.30;99.90
49765;DHT22;35657;51.204;-4.130;2023-02-17T11:06:20;11.20;99.90
49765;DHT22;35657;51.204;-4.130;2023-02-17T11:08:53;11.40;99.90
49765;DHT22;35657;51.204;-4.130;2023-02-17T11:11:23;11.40;99.90
49765;DHT22;35657;51.204;-4.130;2023-02-17T11:14:11;11.40;99.90
49765;DHT22;35657;51.204;-4.130;2023-02-17T11:16:53;11.40;99.90
49765;DHT22;35657;51.204;-4.130;2023-02-17T11:19:28;11.40;99.90
49765;DHT22;35657;51.204;-4.130;2023-02-17T11:21:56;11.40;99.90
49765;DHT22;35657;51.204;-4.130;2023-02-17T11:24:22;11.30;99.90
49765;DHT22;35657;51.204;-4.130;2023-02-17T11:27:22;11.30;99.90
49765;DHT22;35657;51.204;-4.130;2023-02-17T11:29:49;11.30;99.90
49765;DHT22;35657;51.204;-4.130;2023-02-17T11:32:14;11.20;99.90
49765;DHT22;35657;51.204;-4.130;2023-02-17T11:34:42;11.20;99.90
49765;DHT22;35657;51.204;-4.130;2023-02-17T11:42:22;11.20;99.90
49765;DHT22;35657;51.204;-4.130;2023-02-17T11:44:49;11.20;99.90
49765;DHT22;35657;51.204;-4.130;2023-02-17T11:52:42;11.20;99.90
49765;DHT22;35657;51.204;-4.130;2023-02-17T11:55:17;11.20;99.90
49765;DHT22;35657;51.204;-4.130;2023-02-17T12:00:49;11.20;99.90
49765;DHT22;35657;51.204;-4.130;2023-02-17T12:15:06;11.20;99.90
49765;DHT22;35657;51.204;-4.130;2023-02-17T12:17:42;11.30;99.90
49765;DHT22;35657;51.204;-4.130;2023-02-17T12:23:39;11.50;99.90
49765;DHT22;35657;51.204;-4.130;2023-02-17T12:28:50;11.50;99.90
49765;DHT22;35657;51.204;-4.130;2023-02-17T12:34:04;11.60;99.90
49765;DHT22;35657;51.204;-4.130;2023-02-17T12:36:34;11.60;99.90
49765;DHT22;35657;51.204;-4.130;2023-02-17T12:39:42;11.50;99.90
49765;DHT22;35657;51.204;-4.130;2023-02-17T12:42:39;11.40;99.90
49765;DHT22;35657;51.204;-4.130;2023-02-17T12:48:00;11.30;99.90
49765;DHT22;35657;51.204;-4.130;2023-02-17T12:53:02;11.30;99.90
49765;DHT22;35657;51.204;-4.130;2023-02-17T12:55:39;11.30;99.90
49765;DHT22;35657;51.204;-4.130;2023-02-17T12:58:12;11.30;99.90
49765;DHT22;35657;51.204;-4.130;2023-02-17T13:00:43;11.30;99.90
49765;DHT22;35657;51.204;-4.130;2023-02-17T13:03:11;11.30;99.90
49765;DHT22;35657;51.204;-4.130;2023-02-17T13:05:45;11.30;99.90
49765;DHT22;35657;51.204;-4.130;2023-02-17T13:10:46;11.30;99.90
49765;DHT22;35657;51.204;-4.130;2023-02-17T13:13:25;11.30;99.90
49765;DHT22;35657;51.204;-4.130;2023-02-17T13:16:12;11.20;99.90
49765;DHT22;35657;51.204;-4.130;2023-02-17T13:18:43;11.20;99.90
49765;DHT22;35657;51.204;-4.130;2023-02-17T13:24:15;11.30;99.90
49765;DHT22;35657;51.204;-4.130;2023-02-17T13:26:54;11.20;99.90
49765;DHT22;35657;51.204;-4.130;2023-02-17T13:34:36;11.30;99.90
49765;DHT22;35657;51.204;-4.130;2023-02-17T13:39:56;11.40;99.90
49765;DHT22;35657;51.204;-4.130;2023-02-17T13:42:42;11.50;99.90
49765;DHT22;35657;51.204;-4.130;2023-02-17T13:47:45;11.60;99.90
49765;DHT22;35657;51.204;-4.130;2023-02-17T13:50:47;11.50;99.90
49765;DHT22;35657;51.204;-4.130;2023-02-17T13:55:45;11.40;99.90
49765;DHT22;35657;51.204;-4.130;2023-02-17T13:58:11;11.40;99.90
49765;DHT22;35657;51.204;-4.130;2023-02-17T14:00:37;11.40;99.90
49765;DHT22;35657;51.204;-4.130;2023-02-17T14:03:25;11.40;99.90
49765;DHT22;35657;51.204;-4.130;2023-02-17T14:05:58;11.30;99.90
49765;DHT22;35657;51.204;-4.130;2023-02-17T14:11:27;11.30;99.90
49765;DHT22;35657;51.204;-4.130;2023-02-17T14:13:54;11.30;99.90
49765;DHT22;35657;51.204;-4.130;2023-02-17T14:16:36;11.30;99.90
49765;DHT22;35657;51.204;-4.130;2023-02-17T14:19:09;11.30;99.90
49765;DHT22;35657;51.204;-4.130;2023-02-17T14:21:39;11.30;99.90
49765;DHT22;35657;51.204;-4.130;2023-02-17T14:24:05;11.20;99.90
49765;DHT22;35657;51.204;-4.130;2023-02-17T14:28:59;11.30;99.90
49765;DHT22;35657;51.204;-4.130;2023-02-17T14:31:26;11.20;99.90
49765;DHT22;35657;51.204;-4.130;2023-02-17T14:34:00;11.20;99.90
49765;DHT22;35657;51.204;-4.130;2023-02-17T14:36:29;11.20;99.90
49765;DHT22;35657;51.204;-4.130;2023-02-17T14:38:56;11.20;99.90
49765;DHT22;35657;51.204;-4.130;2023-02-17T14:41:22;11.20;99.90
49765;DHT22;35657;51.204;-4.130;2023-02-17T14:43:48;11.20;99.90
49765;DHT22;35657;51.204;-4.130;2023-02-17T14:46:14;11.20;99.90
49765;DHT22;35657;51.204;-4.130;2023-02-17T14:48:53;11.30;99.90
49765;DHT22;35657;51.204;-4.130;2023-02-17T14:51:21;11.40;99.90
49765;DHT22;35657;51.204;-4.130;2023-02-17T14:53:48;11.40;99.90
49765;DHT22;35657;51.204;-4.130;2023-02-17T14:58:46;11.40;99.90
49765;DHT22;35657;51.204;-4.130;2023-02-17T15:01:13;11.50;99.90
49765;DHT22;35657;51.204;-4.130;2023-02-17T15:03:40;11.50;99.90
49765;DHT22;35657;51.204;-4.130;2023-02-17T15:06:15;11.50;99.90
49765;DHT22;35657;51.204;-4.130;2023-02-17T15:08:41;11.40;99.90
49765;DHT22;35657;51.204;-4.130;2023-02-17T15:11:14;11.40;99.90
49765;DHT22;35657;51.204;-4.130;2023-02-17T15:13:41;11.40;99.90
49765;DHT22;35657;51.204;-4.130;2023-02-17T15:16:06;11.30;99.90
49765;DHT22;35657;51.204;-4.130;2023-02-17T15:18:32;11.30;99.90
49765;DHT22;35657;51.204;-4.130;2023-02-17T15:20:58;11.30;99.90
49765;DHT22;35657;51.204;-4.130;2023-02-17T15:23:23;11.30;99.90
49765;DHT22;35657;51.204;-4.130;2023-02-17T15:25:53;11.30;99.90
49765;DHT22;35657;51.204;-4.130;2023-02-17T15:28:20;11.30;99.90
49765;DHT22;35657;51.204;-4.130;2023-02-17T15:30:51;11.30;99.90
49765;DHT22;35657;51.204;-4.130;2023-02-17T15:33:20;11.30;99.90
49765;DHT22;35657;51.204;-4.130;2023-02-17T15:35:47;11.30;99.90
49765;DHT22;35657;51.204;-4.130;2023-02-17T15:38:15;11.30;99.90
49765;DHT22;35657;51.204;-4.130;2023-02-17T15:40:40;11.30;99.90
49765;DHT22;35657;51.204;-4.130;2023-02-17T15:43:13;11.20;99.90
49765;DHT22;35657;51.204;-4.130;2023-02-17T15:45:39;11.20;99.90
49765;DHT22;35657;51.204;-4.130;2023-02-17T15:48:11;11.20;99.90
49765;DHT22;35657;51.204;-4.130;2023-02-17T15:50:38;11.20;99.90
49765;DHT22;35657;51.204;-4.130;2023-02-17T15:53:03;11.20;99.90
49765;DHT22;35657;51.204;-4.130;2023-02-17T15:55:29;11.20;99.90
49765;DHT22;35657;51.204;-4.130;2023-02-17T15:57:57;11.20;99.90
49765;DHT22;35657;51.204;-4.130;2023-02-17T16:00:29;11.20;99.90
49765;DHT22;35657;51.204;-4.130;2023-02-17T16:02:55;11.20;99.90
49765;DHT22;35657;51.204;-4.130;2023-02-17T16:05:24;11.20;99.90
49765;DHT22;35657;51.204;-4.130;2023-02-17T16:07:50;11.30;99.90
49765;DHT22;35657;51.204;-4.130;2023-02-17T16:10:19;11.40;99.90
49765;DHT22;35657;51.204;-4.130;2023-02-17T16:12:47;11.30;99.90
49765;DHT22;35657;51.204;-4.130;2023-02-17T16:15:24;11.40;99.90
49765;DHT22;35657;51.204;-4.130;2023-02-17T16:17:50;11.40;99.90
49765;DHT22;35657;51.204;-4.130;2023-02-17T16:20:26;11.40;99.90
49765;DHT22;35657;51.204;-4.130;2023-02-17T16:22:52;11.30;99.90
49765;DHT22;35657;51.204;-4.130;2023-02-17T16:25:20;11.30;99.90
49765;DHT22;35657;51.204;-4.130;2023-02-17T16:27:47;11.20;99.90
49765;DHT22;35657;51.204;-4.130;2023-02-17T16:32:45;11.20;99.90
49765;DHT22;35657;51.204;-4.130;2023-02-17T16:35:13;11.20;99.90
49765;DHT22;35657;51.204;-4.130;2023-02-17T16:37:40;11.10;99.90
49765;DHT22;35657;51.204;-4.130;2023-02-17T16:40:16;11.10;99.90
49765;DHT22;35657;51.204;-4.130;2023-02-17T16:42:42;11.10;99.90
49765;DHT22;35657;51.204;-4.130;2023-02-17T16:45:21;11.10;99.90
49765;DHT22;35657;51.204;-4.130;2023-02-17T16:47:50;11.10;99.90
49765;DHT22;35657;51.204;-4.130;2023-02-17T16:50:33;11.10;99.90
49765;DHT22;35657;51.204;-4.130;2023-02-17T16:53:02;11.10;99.90
49765;DHT22;35657;51.204;-4.130;2023-02-17T16:55:31;11.10;99.90
49765;DHT22;35657;51.204;-4.130;2023-02-17T16:57:57;11.00;99.90
49765;DHT22;35657;51.204;-4.130;2023-02-17T17:00:25;11.00;99.90
49765;DHT22;35657;51.204;-4.130;2023-02-17T17:02:54;11.00;99.90
49765;DHT22;35657;51.204;-4.130;2023-02-17T17:05:22;11.00;99.90
49765;DHT22;35657;51.204;-4.130;2023-02-17T17:07:48;11.00;99.90
49765;DHT22;35657;51.204;-4.130;2023-02-17T17:10:27;11.00;99.90
49765;DHT22;35657;51.204;-4.130;2023-02-17T17:12:54;11.00;99.90
49765;DHT22;35657;51.204;-4.130;2023-02-17T17:15:20;11.00;99.90
49765;DHT22;35657;51.204;-4.130;2023-02-17T17:17:56;11.00;99.90
49765;DHT22;35657;51.204;-4.130;2023-02-17T17:20:25;11.10;99.90
49765;DHT22;35657;51.204;-4.130;2023-02-17T17:23:01;11.20;99.90
49765;DHT22;35657;51.204;-4.130;2023-02-17T17:25:28;11.20;99.90